sensor_id;sensor_type;location;lat;lon;timestamp;P1;durP1;ratioP1;P2;durP2;ratioP2
1404;SDS011;697;51.114;6.542;2022-12-18T00:02:23;26.83;;;16.00;;
1404;SDS011;697;51.114;6.542;2022-12-18T00:04:50;24.67;;;15.70;;
1404;SDS011;697;51.114;6.542;2022-12-18T00:07:16;24.53;;;14.00;;
1404;SDS011;697;51.114;6.542;2022-12-18T00:09:43;25.93;;;15.23;;
1404;SDS011;697;51.114;6.542;2022-12-18T00:12:11;25.37;;;14.20;;
1404;SDS011;697;51.114;6.542;2022-12-18T00:14:37;21.23;;;15.00;;
1404;SDS011;697;51.114;6.542;2022-12-18T00:17:05;23.07;;;14.70;;
1404;SDS011;697;51.114;6.542;2022-12-18T00:19:32;24.67;;;14.77;;
1404;SDS011;697;51.114;6.542;2022-12-18T00:21:59;21.53;;;14.80;;
1404;SDS011;697;51.114;6.542;2022-12-18T00:24:25;25.27;;;14.50;;
1404;SDS011;697;51.114;6.542;2022-12-18T00:26:52;24.60;;;14.37;;
1404;SDS011;697;51.114;6.542;2022-12-18T00:29:19;24.33;;;15.77;;
1404;SDS011;697;51.114;6.542;2022-12-18T00:31:45;21.63;;;14.37;;
1404;SDS011;697;51.114;6.542;2022-12-18T00:34:15;28.27;;;15.37;;
1404;SDS011;697;51.114;6.542;2022-12-18T00:36:41;19.47;;;12.63;;
1404;SDS011;697;51.114;6.542;2022-12-18T00:39:09;20.97;;;14.47;;
1404;SDS011;697;51.114;6.542;2022-12-18T00:41:37;21.67;;;12.90;;
1404;SDS011;697;51.114;6.542;2022-12-18T00:44:21;20.57;;;13.27;;
1404;SDS011;697;51.114;6.542;2022-12-18T00:46:48;21.43;;;13.70;;
1404;SDS011;697;51.114;6.542;2022-12-18T00:49:17;22.97;;;14.07;;
1404;SDS011;697;51.114;6.542;2022-12-18T00:51:44;26.50;;;14.67;;
1404;SDS011;697;51.114;6.542;2022-12-18T00:54:11;22.77;;;14.20;;
1404;SDS011;697;51.114;6.542;2022-12-18T00:56:38;21.17;;;13.07;;
1404;SDS011;697;51.114;6.542;2022-12-18T00:59:05;24.87;;;14.13;;
1404;SDS011;697;51.114;6.542;2022-12-18T01:01:32;22.83;;;14.00;;
1404;SDS011;697;51.114;6.542;2022-12-18T01:04:00;21.00;;;13.93;;
1404;SDS011;697;51.114;6.542;2022-12-18T01:06:28;23.00;;;13.10;;
1404;SDS011;697;51.114;6.542;2022-12-18T01:08:55;17.83;;;12.47;;
1404;SDS011;697;51.114;6.542;2022-12-18T01:11:22;19.40;;;12.70;;
1404;SDS011;697;51.114;6.542;2022-12-18T01:13:49;21.93;;;13.93;;
1404;SDS011;697;51.114;6.542;2022-12-18T01:16:17;23.47;;;13.83;;
1404;SDS011;697;51.114;6.542;2022-12-18T01:18:44;22.37;;;13.50;;
1404;SDS011;697;51.114;6.542;2022-12-18T01:21:12;21.53;;;14.53;;
1404;SDS011;697;51.114;6.542;2022-12-18T01:23:41;22.87;;;14.20;;
1404;SDS011;697;51.114;6.542;2022-12-18T01:26:09;20.50;;;12.97;;
1404;SDS011;697;51.114;6.542;2022-12-18T01:28:37;23.67;;;14.10;;
1404;SDS011;697;51.114;6.542;2022-12-18T01:31:11;29.30;;;15.10;;
1404;SDS011;697;51.114;6.542;2022-12-18T01:33:42;23.97;;;14.37;;
1404;SDS011;697;51.114;6.542;2022-12-18T01:36:14;20.27;;;13.03;;
1404;SDS011;697;51.114;6.542;2022-12-18T01:38:43;23.33;;;13.70;;
1404;SDS011;697;51.114;6.542;2022-12-18T01:41:10;26.20;;;15.43;;
1404;SDS011;697;51.114;6.542;2022-12-18T01:43:41;24.43;;;13.80;;
1404;SDS011;697;51.114;6.542;2022-12-18T01:46:13;23.07;;;13.23;;
1404;SDS011;697;51.114;6.542;2022-12-18T01:48:40;25.93;;;12.80;;
1404;SDS011;697;51.114;6.542;2022-12-18T01:51:09;20.53;;;12.80;;
1404;SDS011;697;51.114;6.542;2022-12-18T01:53:37;18.77;;;12.53;;
1404;SDS011;697;51.114;6.542;2022-12-18T01:56:11;20.00;;;13.40;;
1404;SDS011;697;51.114;6.542;2022-12-18T01:58:41;21.73;;;12.80;;
1404;SDS011;697;51.114;6.542;2022-12-18T02:01:13;20.90;;;13.73;;
1404;SDS011;697;51.114;6.542;2022-12-18T02:03:40;20.40;;;12.97;;
1404;SDS011;697;51.114;6.542;2022-12-18T02:06:09;25.60;;;13.63;;
1404;SDS011;697;51.114;6.542;2022-12-18T02:08:42;20.20;;;13.87;;
1404;SDS011;697;51.114;6.542;2022-12-18T02:11:18;23.20;;;13.90;;
1404;SDS011;697;51.114;6.542;2022-12-18T02:13:55;22.40;;;13.30;;
1404;SDS011;697;51.114;6.542;2022-12-18T02:16:36;19.50;;;13.10;;
1404;SDS011;697;51.114;6.542;2022-12-18T02:19:11;18.43;;;12.67;;
1404;SDS011;697;51.114;6.542;2022-12-18T02:21:48;22.07;;;13.73;;
1404;SDS011;697;51.114;6.542;2022-12-18T02:24:25;21.50;;;12.57;;
1404;SDS011;697;51.114;6.542;2022-12-18T02:27:02;22.53;;;14.00;;
1404;SDS011;697;51.114;6.542;2022-12-18T02:29:33;19.13;;;11.17;;
1404;SDS011;697;51.114;6.542;2022-12-18T02:32:05;23.83;;;14.90;;
1404;SDS011;697;51.114;6.542;2022-12-18T02:34:38;24.73;;;13.87;;
1404;SDS011;697;51.114;6.542;2022-12-18T02:37:06;24.80;;;13.57;;
1404;SDS011;697;51.114;6.542;2022-12-18T02:39:37;22.63;;;12.57;;
1404;SDS011;697;51.114;6.542;2022-12-18T02:42:07;22.53;;;13.17;;
1404;SDS011;697;51.114;6.542;2022-12-18T02:44:34;22.20;;;13.93;;
1404;SDS011;697;51.114;6.542;2022-12-18T02:47:08;21.90;;;13.40;;
1404;SDS011;697;51.114;6.542;2022-12-18T02:49:39;24.40;;;14.17;;
1404;SDS011;697;51.114;6.542;2022-12-18T02:52:25;20.00;;;13.20;;
1404;SDS011;697;51.114;6.542;2022-12-18T02:55:00;22.93;;;13.90;;
1404;SDS011;697;51.114;6.542;2022-12-18T02:57:38;19.70;;;12.90;;
1404;SDS011;697;51.114;6.542;2022-12-18T03:00:10;22.83;;;13.87;;
1404;SDS011;697;51.114;6.542;2022-12-18T03:02:41;23.50;;;13.80;;
1404;SDS011;697;51.114;6.542;2022-12-18T03:05:13;20.83;;;14.60;;
1404;SDS011;697;51.114;6.542;2022-12-18T03:07:44;22.30;;;14.37;;
1404;SDS011;697;51.114;6.542;2022-12-18T03:10:20;20.10;;;13.30;;
1404;SDS011;697;51.114;6.542;2022-12-18T03:12:53;24.33;;;13.43;;
1404;SDS011;697;51.114;6.542;2022-12-18T03:15:27;25.00;;;13.97;;
1404;SDS011;697;51.114;6.542;2022-12-18T03:17:59;20.97;;;13.20;;
1404;SDS011;697;51.114;6.542;2022-12-18T03:20:31;23.23;;;14.93;;
1404;SDS011;697;51.114;6.542;2022-12-18T03:23:02;22.43;;;13.77;;
1404;SDS011;697;51.114;6.542;2022-12-18T03:25:32;22.83;;;14.57;;
1404;SDS011;697;51.114;6.542;2022-12-18T03:28:02;21.47;;;13.47;;
1404;SDS011;697;51.114;6.542;2022-12-18T03:30:30;22.37;;;13.57;;
1404;SDS011;697;51.114;6.542;2022-12-18T03:33:01;20.07;;;12.03;;
1404;SDS011;697;51.114;6.542;2022-12-18T03:35:33;23.20;;;14.20;;
1404;SDS011;697;51.114;6.542;2022-12-18T03:38:03;21.33;;;13.00;;
1404;SDS011;697;51.114;6.542;2022-12-18T03:40:31;23.83;;;14.30;;
1404;SDS011;697;51.114;6.542;2022-12-18T03:43:08;20.40;;;13.90;;
1404;SDS011;697;51.114;6.542;2022-12-18T03:45:41;20.63;;;14.03;;
1404;SDS011;697;51.114;6.542;2022-12-18T03:48:14;21.47;;;13.90;;
1404;SDS011;697;51.114;6.542;2022-12-18T03:50:46;25.40;;;13.17;;
1404;SDS011;697;51.114;6.542;2022-12-18T03:53:20;21.63;;;14.10;;
1404;SDS011;697;51.114;6.542;2022-12-18T03:55:54;19.80;;;12.83;;
1404;SDS011;697;51.114;6.542;2022-12-18T03:58:24;20.90;;;13.30;;
1404;SDS011;697;51.114;6.542;2022-12-18T04:00:53;22.73;;;13.40;;
1404;SDS011;697;51.114;6.542;2022-12-18T04:03:22;23.00;;;13.10;;
1404;SDS011;697;51.114;6.542;2022-12-18T04:05:51;20.07;;;13.40;;
1404;SDS011;697;51.114;6.542;2022-12-18T04:08:20;23.77;;;13.43;;
1404;SDS011;697;51.114;6.542;2022-12-18T04:10:48;19.03;;;13.37;;
1404;SDS011;697;51.114;6.542;2022-12-18T04:13:21;32.53;;;13.87;;
1404;SDS011;697;51.114;6.542;2022-12-18T04:15:50;20.83;;;13.20;;
1404;SDS011;697;51.114;6.542;2022-12-18T04:18:17;25.93;;;14.20;;
1404;SDS011;697;51.114;6.542;2022-12-18T04:20:44;21.50;;;13.53;;
1404;SDS011;697;51.114;6.542;2022-12-18T04:23:10;22.07;;;14.60;;
1404;SDS011;697;51.114;6.542;2022-12-18T04:25:37;21.37;;;14.17;;
1404;SDS011;697;51.114;6.542;2022-12-18T04:28:04;19.90;;;14.00;;
1404;SDS011;697;51.114;6.542;2022-12-18T04:30:31;22.73;;;13.53;;
1404;SDS011;697;51.114;6.542;2022-12-18T04:32:59;24.00;;;13.97;;
1404;SDS011;697;51.114;6.542;2022-12-18T04:35:25;23.90;;;13.43;;
1404;SDS011;697;51.114;6.542;2022-12-18T04:37:52;20.10;;;13.37;;
1404;SDS011;697;51.114;6.542;2022-12-18T04:40:19;22.53;;;14.20;;
1404;SDS011;697;51.114;6.542;2022-12-18T04:42:46;24.23;;;14.20;;
1404;SDS011;697;51.114;6.542;2022-12-18T04:45:13;20.10;;;13.03;;
1404;SDS011;697;51.114;6.542;2022-12-18T04:47:39;25.53;;;13.83;;
1404;SDS011;697;51.114;6.542;2022-12-18T04:50:08;22.23;;;13.07;;
1404;SDS011;697;51.114;6.542;2022-12-18T04:52:35;22.87;;;13.27;;
1404;SDS011;697;51.114;6.542;2022-12-18T04:55:01;21.73;;;13.40;;
1404;SDS011;697;51.114;6.542;2022-12-18T04:57:29;20.90;;;12.93;;
1404;SDS011;697;51.114;6.542;2022-12-18T04:59:55;24.50;;;13.23;;
1404;SDS011;697;51.114;6.542;2022-12-18T05:02:22;20.47;;;13.47;;
1404;SDS011;697;51.114;6.542;2022-12-18T05:04:49;26.57;;;13.47;;
1404;SDS011;697;51.114;6.542;2022-12-18T05:07:17;26.60;;;14.60;;
1404;SDS011;697;51.114;6.542;2022-12-18T05:09:43;21.53;;;13.47;;
1404;SDS011;697;51.114;6.542;2022-12-18T05:12:10;22.43;;;12.80;;
1404;SDS011;697;51.114;6.542;2022-12-18T05:14:37;26.00;;;14.63;;
1404;SDS011;697;51.114;6.542;2022-12-18T05:17:03;23.93;;;14.30;;
1404;SDS011;697;51.114;6.542;2022-12-18T05:19:30;23.03;;;13.80;;
1404;SDS011;697;51.114;6.542;2022-12-18T05:21:57;21.70;;;12.90;;
1404;SDS011;697;51.114;6.542;2022-12-18T05:24:25;17.60;;;12.50;;
1404;SDS011;697;51.114;6.542;2022-12-18T05:26:51;20.63;;;13.60;;
1404;SDS011;697;51.114;6.542;2022-12-18T05:29:18;22.13;;;14.20;;
1404;SDS011;697;51.114;6.542;2022-12-18T05:31:45;19.47;;;11.97;;
1404;SDS011;697;51.114;6.542;2022-12-18T05:34:12;22.60;;;13.90;;
1404;SDS011;697;51.114;6.542;2022-12-18T05:36:38;23.33;;;13.70;;
1404;SDS011;697;51.114;6.542;2022-12-18T05:39:05;24.40;;;13.37;;
1404;SDS011;697;51.114;6.542;2022-12-18T05:41:34;24.27;;;14.07;;
1404;SDS011;697;51.114;6.542;2022-12-18T05:44:01;20.00;;;13.63;;
1404;SDS011;697;51.114;6.542;2022-12-18T05:46:27;21.03;;;14.53;;
1404;SDS011;697;51.114;6.542;2022-12-18T05:48:54;24.90;;;14.10;;
1404;SDS011;697;51.114;6.542;2022-12-18T05:51:21;23.57;;;13.83;;
1404;SDS011;697;51.114;6.542;2022-12-18T05:53:48;24.50;;;14.80;;
1404;SDS011;697;51.114;6.542;2022-12-18T05:56:18;20.93;;;13.13;;
1404;SDS011;697;51.114;6.542;2022-12-18T05:58:50;24.47;;;13.63;;
1404;SDS011;697;51.114;6.542;2022-12-18T06:01:20;22.07;;;13.70;;
1404;SDS011;697;51.114;6.542;2022-12-18T06:03:48;20.53;;;14.73;;
1404;SDS011;697;51.114;6.542;2022-12-18T06:06:15;18.70;;;13.27;;
1404;SDS011;697;51.114;6.542;2022-12-18T06:08:43;25.53;;;15.33;;
1404;SDS011;697;51.114;6.542;2022-12-18T06:11:09;22.37;;;13.60;;
1404;SDS011;697;51.114;6.542;2022-12-18T06:13:36;24.97;;;13.90;;
1404;SDS011;697;51.114;6.542;2022-12-18T06:16:05;24.40;;;14.70;;
1404;SDS011;697;51.114;6.542;2022-12-18T06:18:33;24.90;;;15.80;;
1404;SDS011;697;51.114;6.542;2022-12-18T06:21:03;28.33;;;16.30;;
1404;SDS011;697;51.114;6.542;2022-12-18T06:23:30;23.20;;;15.10;;
1404;SDS011;697;51.114;6.542;2022-12-18T06:25:57;23.83;;;16.20;;
1404;SDS011;697;51.114;6.542;2022-12-18T06:28:24;22.97;;;14.70;;
1404;SDS011;697;51.114;6.542;2022-12-18T06:30:51;25.20;;;14.70;;
1404;SDS011;697;51.114;6.542;2022-12-18T06:33:19;23.30;;;15.30;;
1404;SDS011;697;51.114;6.542;2022-12-18T06:35:46;28.03;;;15.70;;
1404;SDS011;697;51.114;6.542;2022-12-18T06:38:12;24.63;;;15.30;;
1404;SDS011;697;51.114;6.542;2022-12-18T06:40:39;25.53;;;15.37;;
1404;SDS011;697;51.114;6.542;2022-12-18T06:43:06;25.30;;;15.63;;
1404;SDS011;697;51.114;6.542;2022-12-18T06:45:32;26.00;;;15.63;;
1404;SDS011;697;51.114;6.542;2022-12-18T06:47:59;31.43;;;16.53;;
1404;SDS011;697;51.114;6.542;2022-12-18T06:50:27;28.77;;;16.17;;
1404;SDS011;697;51.114;6.542;2022-12-18T06:52:54;27.93;;;15.63;;
1404;SDS011;697;51.114;6.542;2022-12-18T06:55:22;27.60;;;15.50;;
1404;SDS011;697;51.114;6.542;2022-12-18T06:57:48;23.77;;;14.33;;
1404;SDS011;697;51.114;6.542;2022-12-18T07:00:15;25.50;;;14.90;;
1404;SDS011;697;51.114;6.542;2022-12-18T07:02:42;23.03;;;13.80;;
1404;SDS011;697;51.114;6.542;2022-12-18T07:05:10;21.83;;;14.10;;
1404;SDS011;697;51.114;6.542;2022-12-18T07:07:38;25.63;;;15.33;;
1404;SDS011;697;51.114;6.542;2022-12-18T07:10:05;25.70;;;15.70;;
1404;SDS011;697;51.114;6.542;2022-12-18T07:12:32;27.40;;;14.40;;
1404;SDS011;697;51.114;6.542;2022-12-18T07:14:59;27.63;;;16.13;;
1404;SDS011;697;51.114;6.542;2022-12-18T07:17:26;26.63;;;15.40;;
1404;SDS011;697;51.114;6.542;2022-12-18T07:19:54;22.67;;;15.93;;
1404;SDS011;697;51.114;6.542;2022-12-18T07:22:21;25.90;;;16.03;;
1404;SDS011;697;51.114;6.542;2022-12-18T07:24:49;22.47;;;14.37;;
1404;SDS011;697;51.114;6.542;2022-12-18T07:27:16;26.63;;;15.70;;
1404;SDS011;697;51.114;6.542;2022-12-18T07:29:42;26.80;;;15.33;;
1404;SDS011;697;51.114;6.542;2022-12-18T07:32:09;26.47;;;16.67;;
1404;SDS011;697;51.114;6.542;2022-12-18T07:34:36;29.50;;;17.20;;
1404;SDS011;697;51.114;6.542;2022-12-18T07:37:02;26.37;;;14.50;;
1404;SDS011;697;51.114;6.542;2022-12-18T07:39:29;28.10;;;16.23;;
1404;SDS011;697;51.114;6.542;2022-12-18T07:41:57;27.43;;;16.37;;
1404;SDS011;697;51.114;6.542;2022-12-18T07:44:43;23.50;;;14.73;;
1404;SDS011;697;51.114;6.542;2022-12-18T07:47:09;23.23;;;15.10;;
1404;SDS011;697;51.114;6.542;2022-12-18T07:49:36;23.03;;;14.13;;
1404;SDS011;697;51.114;6.542;2022-12-18T07:52:03;24.97;;;15.07;;
1404;SDS011;697;51.114;6.542;2022-12-18T07:54:31;22.27;;;13.90;;
1404;SDS011;697;51.114;6.542;2022-12-18T07:57:01;23.30;;;14.20;;
1404;SDS011;697;51.114;6.542;2022-12-18T07:59:27;27.07;;;16.43;;
1404;SDS011;697;51.114;6.542;2022-12-18T08:01:54;28.77;;;15.90;;
1404;SDS011;697;51.114;6.542;2022-12-18T08:04:21;23.33;;;15.13;;
1404;SDS011;697;51.114;6.542;2022-12-18T08:06:47;22.73;;;14.03;;
1404;SDS011;697;51.114;6.542;2022-12-18T08:09:14;24.57;;;15.50;;
1404;SDS011;697;51.114;6.542;2022-12-18T08:11:41;25.90;;;14.43;;
1404;SDS011;697;51.114;6.542;2022-12-18T08:14:09;23.33;;;13.23;;
1404;SDS011;697;51.114;6.542;2022-12-18T08:16:36;23.13;;;13.83;;
1404;SDS011;697;51.114;6.542;2022-12-18T08:19:03;23.07;;;14.43;;
1404;SDS011;697;51.114;6.542;2022-12-18T08:21:30;25.40;;;15.20;;
1404;SDS011;697;51.114;6.542;2022-12-18T08:23:58;21.70;;;13.83;;
1404;SDS011;697;51.114;6.542;2022-12-18T08:26:26;20.00;;;14.07;;
1404;SDS011;697;51.114;6.542;2022-12-18T08:28:55;21.13;;;14.13;;
1404;SDS011;697;51.114;6.542;2022-12-18T08:31:25;24.07;;;15.10;;
1404;SDS011;697;51.114;6.542;2022-12-18T08:33:53;25.07;;;15.13;;
1404;SDS011;697;51.114;6.542;2022-12-18T08:36:20;21.90;;;14.10;;
1404;SDS011;697;51.114;6.542;2022-12-18T08:38:47;22.77;;;13.23;;
1404;SDS011;697;51.114;6.542;2022-12-18T08:41:15;26.37;;;15.50;;
1404;SDS011;697;51.114;6.542;2022-12-18T08:43:43;23.57;;;15.00;;
1404;SDS011;697;51.114;6.542;2022-12-18T08:46:31;25.67;;;15.83;;
1404;SDS011;697;51.114;6.542;2022-12-18T08:49:00;24.50;;;16.47;;
1404;SDS011;697;51.114;6.542;2022-12-18T08:51:27;25.37;;;16.00;;
1404;SDS011;697;51.114;6.542;2022-12-18T08:53:53;27.13;;;15.77;;
1404;SDS011;697;51.114;6.542;2022-12-18T08:56:20;25.77;;;15.60;;
1404;SDS011;697;51.114;6.542;2022-12-18T08:58:50;24.40;;;14.07;;
1404;SDS011;697;51.114;6.542;2022-12-18T09:01:17;25.33;;;15.10;;
1404;SDS011;697;51.114;6.542;2022-12-18T09:03:45;26.33;;;14.47;;
1404;SDS011;697;51.114;6.542;2022-12-18T09:06:13;21.17;;;14.00;;
1404;SDS011;697;51.114;6.542;2022-12-18T09:08:41;26.10;;;15.93;;
1404;SDS011;697;51.114;6.542;2022-12-18T09:11:10;23.90;;;14.13;;
1404;SDS011;697;51.114;6.542;2022-12-18T09:13:39;25.33;;;15.30;;
1404;SDS011;697;51.114;6.542;2022-12-18T09:16:06;24.23;;;16.03;;
1404;SDS011;697;51.114;6.542;2022-12-18T09:18:33;24.83;;;15.10;;
1404;SDS011;697;51.114;6.542;2022-12-18T09:21:06;20.43;;;14.13;;
1404;SDS011;697;51.114;6.542;2022-12-18T09:23:34;21.47;;;13.93;;
1404;SDS011;697;51.114;6.542;2022-12-18T09:26:00;26.53;;;15.60;;
1404;SDS011;697;51.114;6.542;2022-12-18T09:28:29;22.70;;;15.20;;
1404;SDS011;697;51.114;6.542;2022-12-18T09:30:57;25.23;;;14.93;;
1404;SDS011;697;51.114;6.542;2022-12-18T09:33:24;29.43;;;16.50;;
1404;SDS011;697;51.114;6.542;2022-12-18T09:35:51;24.90;;;14.87;;
1404;SDS011;697;51.114;6.542;2022-12-18T09:38:19;23.50;;;15.70;;
1404;SDS011;697;51.114;6.542;2022-12-18T09:40:48;22.63;;;14.20;;
1404;SDS011;697;51.114;6.542;2022-12-18T09:43:19;22.30;;;14.47;;
1404;SDS011;697;51.114;6.542;2022-12-18T09:45:51;23.10;;;14.97;;
1404;SDS011;697;51.114;6.542;2022-12-18T09:48:21;23.97;;;14.80;;
1404;SDS011;697;51.114;6.542;2022-12-18T09:50:51;23.70;;;14.07;;
1404;SDS011;697;51.114;6.542;2022-12-18T09:53:25;26.40;;;14.67;;
1404;SDS011;697;51.114;6.542;2022-12-18T09:55:56;21.53;;;14.90;;
1404;SDS011;697;51.114;6.542;2022-12-18T09:58:24;20.83;;;14.40;;
1404;SDS011;697;51.114;6.542;2022-12-18T10:00:56;24.87;;;14.97;;
1404;SDS011;697;51.114;6.542;2022-12-18T10:03:23;155.43;;;19.40;;
1404;SDS011;697;51.114;6.542;2022-12-18T10:05:53;23.20;;;15.07;;
1404;SDS011;697;51.114;6.542;2022-12-18T10:08:32;25.60;;;15.87;;
1404;SDS011;697;51.114;6.542;2022-12-18T10:11:13;22.27;;;14.50;;
1404;SDS011;697;51.114;6.542;2022-12-18T10:13:52;22.00;;;14.37;;
1404;SDS011;697;51.114;6.542;2022-12-18T10:16:22;23.47;;;13.97;;
1404;SDS011;697;51.114;6.542;2022-12-18T10:18:57;21.93;;;14.27;;
1404;SDS011;697;51.114;6.542;2022-12-18T10:21:31;23.27;;;14.57;;
1404;SDS011;697;51.114;6.542;2022-12-18T10:24:08;24.00;;;15.93;;
1404;SDS011;697;51.114;6.542;2022-12-18T10:26:43;18.87;;;13.80;;
1404;SDS011;697;51.114;6.542;2022-12-18T10:29:10;21.30;;;15.00;;
1404;SDS011;697;51.114;6.542;2022-12-18T10:31:39;22.83;;;15.53;;
1404;SDS011;697;51.114;6.542;2022-12-18T10:34:08;21.47;;;15.13;;
1404;SDS011;697;51.114;6.542;2022-12-18T10:36:35;25.43;;;16.17;;
1404;SDS011;697;51.114;6.542;2022-12-18T10:39:15;21.90;;;14.33;;
1404;SDS011;697;51.114;6.542;2022-12-18T10:41:44;21.00;;;14.40;;
1404;SDS011;697;51.114;6.542;2022-12-18T10:44:12;29.63;;;15.10;;
1404;SDS011;697;51.114;6.542;2022-12-18T10:46:45;24.23;;;14.67;;
1404;SDS011;697;51.114;6.542;2022-12-18T10:49:27;27.20;;;17.23;;
1404;SDS011;697;51.114;6.542;2022-12-18T10:52:05;23.40;;;15.33;;
1404;SDS011;697;51.114;6.542;2022-12-18T10:54:47;26.97;;;16.33;;
1404;SDS011;697;51.114;6.542;2022-12-18T10:57:27;23.50;;;16.97;;
1404;SDS011;697;51.114;6.542;2022-12-18T10:59:58;27.47;;;16.97;;
1404;SDS011;697;51.114;6.542;2022-12-18T11:02:26;24.03;;;14.93;;
1404;SDS011;697;51.114;6.542;2022-12-18T11:04:59;24.13;;;16.83;;
1404;SDS011;697;51.114;6.542;2022-12-18T11:07:30;22.70;;;15.50;;
1404;SDS011;697;51.114;6.542;2022-12-18T11:10:17;23.27;;;15.47;;
1404;SDS011;697;51.114;6.542;2022-12-18T11:12:45;23.90;;;15.37;;
1404;SDS011;697;51.114;6.542;2022-12-18T11:15:15;27.30;;;16.90;;
1404;SDS011;697;51.114;6.542;2022-12-18T11:17:45;23.10;;;14.97;;
1404;SDS011;697;51.114;6.542;2022-12-18T11:20:19;24.20;;;15.07;;
1404;SDS011;697;51.114;6.542;2022-12-18T11:22:56;22.83;;;14.90;;
1404;SDS011;697;51.114;6.542;2022-12-18T11:25:26;26.30;;;16.57;;
1404;SDS011;697;51.114;6.542;2022-12-18T11:27:54;23.00;;;15.87;;
1404;SDS011;697;51.114;6.542;2022-12-18T11:30:23;24.43;;;15.60;;
1404;SDS011;697;51.114;6.542;2022-12-18T11:32:54;19.53;;;14.03;;
1404;SDS011;697;51.114;6.542;2022-12-18T11:35:30;17.70;;;13.20;;
1404;SDS011;697;51.114;6.542;2022-12-18T11:38:04;23.47;;;15.30;;
1404;SDS011;697;51.114;6.542;2022-12-18T11:40:43;24.70;;;14.50;;
1404;SDS011;697;51.114;6.542;2022-12-18T11:43:13;22.83;;;15.30;;
1404;SDS011;697;51.114;6.542;2022-12-18T11:45:45;21.43;;;15.27;;
1404;SDS011;697;51.114;6.542;2022-12-18T11:48:17;23.83;;;14.80;;
1404;SDS011;697;51.114;6.542;2022-12-18T11:50:50;22.50;;;15.20;;
1404;SDS011;697;51.114;6.542;2022-12-18T11:53:19;22.20;;;14.57;;
1404;SDS011;697;51.114;6.542;2022-12-18T11:55:51;22.27;;;14.20;;
1404;SDS011;697;51.114;6.542;2022-12-18T11:58:45;21.20;;;13.77;;
1404;SDS011;697;51.114;6.542;2022-12-18T12:01:23;22.10;;;13.40;;
1404;SDS011;697;51.114;6.542;2022-12-18T12:04:08;22.43;;;16.13;;
1404;SDS011;697;51.114;6.542;2022-12-18T12:06:57;21.67;;;14.63;;
1404;SDS011;697;51.114;6.542;2022-12-18T12:09:31;26.40;;;16.17;;
1404;SDS011;697;51.114;6.542;2022-12-18T12:12:10;24.60;;;16.43;;
1404;SDS011;697;51.114;6.542;2022-12-18T12:14:47;21.50;;;14.80;;
1404;SDS011;697;51.114;6.542;2022-12-18T12:17:23;26.63;;;16.77;;
1404;SDS011;697;51.114;6.542;2022-12-18T12:19:59;23.07;;;14.90;;
1404;SDS011;697;51.114;6.542;2022-12-18T12:22:33;27.77;;;17.17;;
1404;SDS011;697;51.114;6.542;2022-12-18T12:25:19;24.57;;;15.80;;
1404;SDS011;697;51.114;6.542;2022-12-18T12:27:57;25.23;;;16.10;;
1404;SDS011;697;51.114;6.542;2022-12-18T12:30:39;22.10;;;15.47;;
1404;SDS011;697;51.114;6.542;2022-12-18T12:33:17;25.27;;;14.97;;
1404;SDS011;697;51.114;6.542;2022-12-18T12:35:56;24.57;;;15.67;;
1404;SDS011;697;51.114;6.542;2022-12-18T12:38:28;24.40;;;14.67;;
1404;SDS011;697;51.114;6.542;2022-12-18T12:41:00;25.90;;;16.13;;
1404;SDS011;697;51.114;6.542;2022-12-18T12:43:35;25.10;;;16.00;;
1404;SDS011;697;51.114;6.542;2022-12-18T12:46:06;24.97;;;17.67;;
1404;SDS011;697;51.114;6.542;2022-12-18T12:48:36;22.07;;;16.10;;
1404;SDS011;697;51.114;6.542;2022-12-18T12:51:09;22.70;;;15.57;;
1404;SDS011;697;51.114;6.542;2022-12-18T12:53:41;24.80;;;15.37;;
1404;SDS011;697;51.114;6.542;2022-12-18T12:56:09;24.10;;;16.63;;
1404;SDS011;697;51.114;6.542;2022-12-18T12:58:41;22.73;;;15.50;;
1404;SDS011;697;51.114;6.542;2022-12-18T13:01:19;23.70;;;16.37;;
1404;SDS011;697;51.114;6.542;2022-12-18T13:03:56;26.20;;;16.40;;
1404;SDS011;697;51.114;6.542;2022-12-18T13:06:33;27.03;;;17.20;;
1404;SDS011;697;51.114;6.542;2022-12-18T13:09:06;26.50;;;16.93;;
1404;SDS011;697;51.114;6.542;2022-12-18T13:11:37;28.50;;;18.40;;
1404;SDS011;697;51.114;6.542;2022-12-18T13:14:26;23.70;;;16.60;;
1404;SDS011;697;51.114;6.542;2022-12-18T13:17:20;26.17;;;18.20;;
1404;SDS011;697;51.114;6.542;2022-12-18T13:20:03;25.23;;;17.07;;
1404;SDS011;697;51.114;6.542;2022-12-18T13:22:37;23.57;;;17.60;;
1404;SDS011;697;51.114;6.542;2022-12-18T13:28:09;27.03;;;17.37;;
1404;SDS011;697;51.114;6.542;2022-12-18T13:30:43;27.43;;;17.93;;
1404;SDS011;697;51.114;6.542;2022-12-18T13:36:16;22.90;;;16.33;;
1404;SDS011;697;51.114;6.542;2022-12-18T13:41:44;27.00;;;17.90;;
1404;SDS011;697;51.114;6.542;2022-12-18T13:44:12;29.50;;;18.83;;
1404;SDS011;697;51.114;6.542;2022-12-18T13:46:49;25.53;;;18.43;;
1404;SDS011;697;51.114;6.542;2022-12-18T13:49:20;29.20;;;18.80;;
1404;SDS011;697;51.114;6.542;2022-12-18T13:51:50;24.43;;;17.40;;
1404;SDS011;697;51.114;6.542;2022-12-18T13:54:18;27.37;;;18.93;;
1404;SDS011;697;51.114;6.542;2022-12-18T13:56:48;29.77;;;19.13;;
1404;SDS011;697;51.114;6.542;2022-12-18T13:59:17;26.53;;;17.20;;
1404;SDS011;697;51.114;6.542;2022-12-18T14:01:46;29.10;;;18.03;;
1404;SDS011;697;51.114;6.542;2022-12-18T14:04:18;31.30;;;17.13;;
1404;SDS011;697;51.114;6.542;2022-12-18T14:06:47;27.60;;;18.40;;
1404;SDS011;697;51.114;6.542;2022-12-18T14:09:16;27.30;;;18.60;;
1404;SDS011;697;51.114;6.542;2022-12-18T14:11:48;29.50;;;18.37;;
1404;SDS011;697;51.114;6.542;2022-12-18T14:14:15;28.60;;;19.63;;
1404;SDS011;697;51.114;6.542;2022-12-18T14:16:43;28.10;;;18.00;;
1404;SDS011;697;51.114;6.542;2022-12-18T14:19:16;28.00;;;19.40;;
1404;SDS011;697;51.114;6.542;2022-12-18T14:21:46;29.73;;;18.50;;
1404;SDS011;697;51.114;6.542;2022-12-18T14:24:14;33.00;;;19.17;;
1404;SDS011;697;51.114;6.542;2022-12-18T14:26:43;29.47;;;17.70;;
1404;SDS011;697;51.114;6.542;2022-12-18T14:29:20;26.87;;;17.23;;
1404;SDS011;697;51.114;6.542;2022-12-18T14:32:09;27.33;;;16.70;;
1404;SDS011;697;51.114;6.542;2022-12-18T14:34:39;27.23;;;18.67;;
1404;SDS011;697;51.114;6.542;2022-12-18T14:37:09;33.70;;;20.10;;
1404;SDS011;697;51.114;6.542;2022-12-18T14:39:37;33.70;;;19.77;;
1404;SDS011;697;51.114;6.542;2022-12-18T14:42:03;28.17;;;17.60;;
1404;SDS011;697;51.114;6.542;2022-12-18T14:44:31;26.47;;;17.27;;
1404;SDS011;697;51.114;6.542;2022-12-18T14:46:59;28.67;;;19.50;;
1404;SDS011;697;51.114;6.542;2022-12-18T14:49:26;30.40;;;18.90;;
1404;SDS011;697;51.114;6.542;2022-12-18T14:51:58;30.90;;;18.80;;
1404;SDS011;697;51.114;6.542;2022-12-18T14:54:26;35.33;;;18.90;;
1404;SDS011;697;51.114;6.542;2022-12-18T14:56:55;28.27;;;18.27;;
1404;SDS011;697;51.114;6.542;2022-12-18T14:59:26;26.97;;;17.43;;
1404;SDS011;697;51.114;6.542;2022-12-18T15:01:58;29.63;;;19.53;;
1404;SDS011;697;51.114;6.542;2022-12-18T15:04:29;28.53;;;19.47;;
1404;SDS011;697;51.114;6.542;2022-12-18T15:07:04;29.83;;;19.83;;
1404;SDS011;697;51.114;6.542;2022-12-18T15:09:33;32.30;;;19.87;;
1404;SDS011;697;51.114;6.542;2022-12-18T15:12:00;29.47;;;19.00;;
1404;SDS011;697;51.114;6.542;2022-12-18T15:14:37;33.23;;;19.30;;
1404;SDS011;697;51.114;6.542;2022-12-18T15:17:06;24.37;;;18.10;;
1404;SDS011;697;51.114;6.542;2022-12-18T15:19:42;29.60;;;19.43;;
1404;SDS011;697;51.114;6.542;2022-12-18T15:22:19;28.37;;;20.03;;
1404;SDS011;697;51.114;6.542;2022-12-18T15:24:49;30.90;;;19.20;;
1404;SDS011;697;51.114;6.542;2022-12-18T15:27:26;29.53;;;19.60;;
1404;SDS011;697;51.114;6.542;2022-12-18T15:30:00;26.73;;;18.83;;